createdAt,value
2022-10-22T00:01:05.840Z,100223.00
2022-10-22T00:03:32.884Z,100216.06
2022-10-22T00:05:59.755Z,100207.34
2022-10-22T00:08:26.561Z,100203.00
2022-10-22T00:10:53.572Z,100184.69
2022-10-22T00:13:20.611Z,100208.19
2022-10-22T00:15:47.490Z,100195.13
2022-10-22T00:18:14.239Z,100209.94
2022-10-22T00:20:41.261Z,100198.59
2022-10-22T00:23:08.007Z,100175.09
2022-10-22T00:25:36.202Z,100170.78
2022-10-22T00:28:03.750Z,100176.00
2022-10-22T00:30:30.571Z,100162.94
2022-10-22T00:32:57.308Z,100174.25
2022-10-22T00:35:24.062Z,100189.06
2022-10-22T00:37:50.808Z,100180.31
2022-10-22T00:40:17.628Z,100174.25
2022-10-22T00:42:44.315Z,100165.56
2022-10-22T00:45:10.987Z,100147.28
2022-10-22T00:47:48.831Z,100148.16
2022-10-22T00:50:24.680Z,100145.53
2022-10-22T00:52:51.794Z,100136.84
2022-10-22T00:55:20.762Z,100132.50
2022-10-22T00:57:48.503Z,100136.00
2022-10-22T01:00:15.927Z,100130.78
2022-10-22T01:02:43.028Z,100125.56
2022-10-22T01:05:10.496Z,100131.66
2022-10-22T01:07:47.331Z,100126.41
2022-10-22T01:10:20.017Z,100127.31
2022-10-22T01:12:46.744Z,100128.16
2022-10-22T01:15:22.223Z,100119.44
2022-10-22T01:18:09.495Z,100115.97
2022-10-22T01:20:39.197Z,100111.59
2022-10-22T01:23:22.014Z,100122.94
2022-10-22T01:26:28.226Z,100118.56
2022-10-22T01:29:05.552Z,100117.66
2022-10-22T01:31:38.140Z,100114.19
2022-10-22T01:34:08.399Z,100099.34
2022-10-22T01:36:37.509Z,100104.56
2022-10-22T01:39:06.358Z,100105.44
2022-10-22T01:41:35.217Z,100113.25
2022-10-22T01:44:02.024Z,100107.16
2022-10-22T01:46:29.692Z,100094.09
2022-10-22T01:49:02.289Z,100102.81
2022-10-22T01:51:47.067Z,100096.69
2022-10-22T01:54:26.654Z,100096.69
2022-10-22T01:57:10.452Z,100097.56
2022-10-22T02:00:00.245Z,100105.41
2022-10-22T02:02:36.003Z,100098.44
2022-10-22T02:05:13.046Z,100094.09
2022-10-22T02:07:46.920Z,100090.66
2022-10-22T02:10:14.481Z,100084.53
2022-10-22T02:12:43.276Z,100075.00
2022-10-22T02:15:12.439Z,100072.41
2022-10-22T02:17:42.536Z,100067.19
2022-10-22T02:20:22.268Z,100068.06
2022-10-22T02:22:49.098Z,100062.84
2022-10-22T02:25:17.004Z,100055.06
2022-10-22T02:27:49.488Z,100062.00
2022-10-22T02:30:21.486Z,100066.38
2022-10-22T02:33:07.025Z,100057.69
2022-10-22T02:35:35.419Z,100051.63
2022-10-22T02:38:03.398Z,100040.28
2022-10-22T02:40:32.009Z,100027.22
2022-10-22T02:42:59.190Z,100028.06
2022-10-22T02:45:26.073Z,100028.91
2022-10-22T02:47:52.951Z,100021.94
2022-10-22T02:50:19.679Z,100028.84
2022-10-22T02:52:46.404Z,100025.38
2022-10-22T02:55:13.468Z,100020.16
2022-10-22T02:57:40.484Z,100020.13
2022-10-22T03:00:09.456Z,100015.75
2022-10-22T03:02:36.380Z,100020.97
2022-10-22T03:05:04.449Z,100018.31
2022-10-22T03:07:31.291Z,100033.09
2022-10-22T03:09:57.985Z,100033.06
2022-10-22T03:12:24.714Z,100031.28
2022-10-22T03:14:51.442Z,100030.41
2022-10-22T03:17:19.093Z,100031.22
2022-10-22T03:19:45.781Z,100018.13
2022-10-22T03:22:24.982Z,100019.81
2022-10-22T03:24:58.414Z,100008.44
2022-10-22T03:27:28.402Z,100011.88
2022-10-22T03:29:56.885Z,100010.97
2022-10-22T03:32:23.597Z,100000.44
2022-10-22T03:34:50.424Z,100007.38
2022-10-22T03:37:17.466Z,100003.81
2022-10-22T03:39:44.485Z,99996.84
2022-10-22T03:42:13.312Z,100002.91
2022-10-22T03:44:40.823Z,99995.00
2022-10-22T03:47:07.882Z,99987.16
2022-10-22T03:49:34.699Z,99988.94
2022-10-22T03:52:12.901Z,99987.19
2022-10-22T03:54:40.334Z,99989.06
2022-10-22T03:57:07.386Z,100004.81
2022-10-22T03:59:42.681Z,99991.69
2022-10-22T04:02:10.289Z,99986.41
2022-10-22T04:04:37.648Z,99989.00
2022-10-22T04:07:05.858Z,99982.88
2022-10-22T04:09:33.614Z,99985.50
2022-10-22T04:12:01.048Z,99973.34
2022-10-22T04:14:27.904Z,99969.03
2022-10-22T04:16:54.794Z,99946.44
2022-10-22T04:19:21.617Z,99943.84
2022-10-22T04:21:48.396Z,99947.38
2022-10-22T04:24:15.384Z,99950.00
2022-10-22T04:26:42.373Z,99951.81
2022-10-22T04:29:13.389Z,99938.00
2022-10-22T04:31:43.306Z,99936.25
2022-10-22T04:34:10.173Z,99925.72
2022-10-22T04:36:36.901Z,99918.72
2022-10-22T04:39:04.856Z,99917.81
2022-10-22T04:41:39.199Z,99919.53
2022-10-22T04:44:09.885Z,99917.69
2022-10-22T04:46:40.253Z,99905.44
2022-10-22T04:49:07.019Z,99900.13
2022-10-22T04:51:33.803Z,99916.53
2022-10-22T04:54:00.619Z,99930.41
2022-10-22T04:56:30.231Z,99926.75
2022-10-22T04:59:02.738Z,99939.75
2022-10-22T05:01:32.523Z,99951.03
2022-10-22T05:04:02.174Z,99943.97
2022-10-22T05:06:30.553Z,99948.19
2022-10-22T05:09:00.205Z,99948.22
2022-10-22T05:11:33.992Z,99948.09
2022-10-22T05:14:03.046Z,99954.16
2022-10-22T05:16:33.914Z,99962.72
2022-10-22T05:19:02.052Z,99966.97
2022-10-22T05:21:29.064Z,99969.50
2022-10-22T05:23:57.398Z,99968.53
2022-10-22T05:26:25.165Z,99964.00
2022-10-22T05:28:52.805Z,99969.69
2022-10-22T05:31:20.041Z,99972.88
2022-10-22T05:33:47.599Z,99968.47
2022-10-22T05:36:19.100Z,99966.38
2022-10-22T05:38:46.308Z,99967.97
2022-10-22T05:41:16.471Z,99960.56
2022-10-22T05:43:43.519Z,99954.09
2022-10-22T05:46:12.956Z,99954.41
2022-10-22T05:48:40.264Z,99954.16
2022-10-22T05:51:10.173Z,99957.09
2022-10-22T05:53:39.178Z,99953.78
2022-10-22T05:56:16.840Z,99945.16
2022-10-22T05:58:45.519Z,99953.63
2022-10-22T06:01:24.498Z,99953.34
2022-10-22T06:03:54.894Z,99944.16
2022-10-22T06:06:24.232Z,99954.25
2022-10-22T06:08:52.921Z,99953.16
2022-10-22T06:11:21.132Z,99956.81
2022-10-22T06:13:49.582Z,99963.81
2022-10-22T06:16:16.609Z,99945.66
2022-10-22T06:18:43.360Z,99954.72
2022-10-22T06:21:16.057Z,99944.22
2022-10-22T06:23:43.250Z,99951.84
2022-10-22T06:26:11.000Z,99940.66
2022-10-22T06:28:38.549Z,99944.31
2022-10-22T06:31:05.628Z,99947.91
2022-10-22T06:33:34.343Z,99940.91
2022-10-22T06:36:10.206Z,99934.66
2022-10-22T06:38:36.928Z,99935.41
2022-10-22T06:41:09.967Z,99926.53
2022-10-22T06:43:37.045Z,99916.50
2022-10-22T06:46:07.259Z,99909.94
2022-10-22T06:48:36.087Z,99902.78
2022-10-22T08:01:42.654Z,99918.00
2022-10-22T08:04:09.966Z,99915.00
2022-10-22T08:06:37.056Z,99916.91
2022-10-22T08:09:04.097Z,99919.31
2022-10-22T08:11:33.526Z,99916.56
2022-10-22T08:14:00.750Z,99904.84
2022-10-22T08:16:27.596Z,99900.38
2022-10-22T08:18:54.401Z,99901.38
2022-10-22T08:21:21.167Z,99900.28
2022-10-22T08:23:47.911Z,99894.38
2022-10-22T08:26:14.691Z,99899.53
2022-10-22T08:28:41.681Z,99898.16
2022-10-22T08:31:08.896Z,99895.09
2022-10-22T08:33:35.809Z,99885.97
2022-10-22T08:36:02.814Z,99895.84
2022-10-22T08:38:31.415Z,99897.09
2022-10-22T08:41:07.720Z,99901.56
2022-10-22T08:43:59.102Z,99895.22
2022-10-22T08:46:25.838Z,99877.09
2022-10-22T08:49:00.435Z,99863.59
2022-10-22T08:51:34.374Z,99851.72
2022-10-22T08:54:19.483Z,99854.09
2022-10-22T08:56:57.299Z,99868.22
2022-10-22T08:59:30.424Z,99884.88
2022-10-22T09:01:57.352Z,99877.72
2022-10-22T09:04:30.944Z,99869.31
2022-10-22T09:06:59.598Z,99854.16
2022-10-22T09:09:31.823Z,99854.00
2022-10-22T09:12:00.710Z,99858.47
2022-10-22T09:14:27.770Z,99857.84
2022-10-22T09:17:00.217Z,99847.69
2022-10-22T09:19:26.925Z,99842.75
2022-10-22T09:22:27.346Z,99831.28
2022-10-22T09:25:21.338Z,99819.28
2022-10-22T09:27:49.277Z,99825.84
2022-10-22T09:30:18.695Z,99817.38
2022-10-22T09:32:45.771Z,99808.84
2022-10-22T09:35:15.199Z,99803.31
2022-10-22T09:37:50.177Z,99810.16
2022-10-22T09:40:18.336Z,99804.78
2022-10-22T09:42:46.839Z,99809.75
2022-10-22T09:45:21.060Z,99820.50
2022-10-22T09:48:03.984Z,99824.63
2022-10-22T09:50:47.541Z,99834.50
2022-10-22T09:53:17.274Z,99849.00
2022-10-22T09:55:49.125Z,99858.75
2022-10-22T09:58:19.528Z,99856.94
2022-10-22T10:00:51.451Z,99843.13
2022-10-22T10:03:21.736Z,99836.19
2022-10-22T10:05:53.459Z,99824.19
2022-10-22T10:08:20.896Z,99815.56
2022-10-22T10:10:54.653Z,99807.69
2022-10-22T10:13:21.286Z,99803.19
2022-10-22T10:16:12.080Z,99800.22
2022-10-22T10:18:58.925Z,99811.31
2022-10-22T10:21:57.284Z,99816.72
2022-10-22T10:24:39.011Z,99800.06
2022-10-22T10:27:15.453Z,99801.03
2022-10-22T10:29:58.281Z,99808.97
2022-10-22T10:32:37.298Z,99810.19
2022-10-22T10:35:25.596Z,99795.50
2022-10-22T10:38:14.002Z,99802.00
2022-10-22T10:40:55.598Z,99816.66
2022-10-22T10:43:49.986Z,99828.53
2022-10-22T10:46:39.862Z,99813.66
2022-10-22T10:49:23.265Z,99800.31
2022-10-22T10:52:20.483Z,99786.19
2022-10-22T10:55:06.950Z,99788.19
2022-10-22T10:57:44.464Z,99792.50
2022-10-22T11:00:20.832Z,99788.34
2022-10-22T11:03:09.129Z,99792.78
2022-10-22T11:05:44.322Z,99784.03
2022-10-22T11:08:25.297Z,99777.50
2022-10-22T11:10:57.835Z,99778.19
2022-10-22T11:13:40.351Z,99779.88
2022-10-22T11:16:25.093Z,99775.75
2022-10-22T11:19:22.731Z,99762.94
2022-10-22T11:21:52.840Z,99753.88
2022-10-22T11:25:03.109Z,99744.75
2022-10-22T11:27:48.761Z,99737.84
2022-10-22T11:30:24.648Z,99736.38
2022-10-22T11:32:58.177Z,99718.44
2022-10-22T11:35:28.762Z,99733.09
2022-10-22T11:37:57.412Z,99727.78
2022-10-22T11:41:01.394Z,99724.91
2022-10-22T11:43:32.726Z,99713.53
2022-10-22T11:46:27.389Z,99714.94
2022-10-22T11:49:15.349Z,99715.06
2022-10-22T11:51:44.012Z,99721.19
2022-10-22T11:54:32.654Z,99714.47
2022-10-22T11:57:14.561Z,99696.28
2022-10-22T11:59:47.462Z,99707.88
2022-10-22T12:02:23.125Z,99684.47
2022-10-22T12:04:50.135Z,99685.00
2022-10-22T12:07:35.814Z,99701.44
2022-10-22T12:10:18.475Z,99688.94
2022-10-22T12:12:55.768Z,99691.59
2022-10-22T12:15:29.033Z,99689.25
2022-10-22T12:18:05.538Z,99688.63
2022-10-22T12:20:32.454Z,99695.16
2022-10-22T12:23:00.126Z,99701.66
2022-10-22T12:25:35.596Z,99700.59
2022-10-22T12:28:02.865Z,99700.59
2022-10-22T12:30:34.705Z,99706.31
2022-10-22T12:33:04.486Z,99701.44
2022-10-22T12:35:43.182Z,99703.03
2022-10-22T12:38:18.430Z,99705.16
2022-10-22T12:40:48.400Z,99694.47
2022-10-22T12:43:28.985Z,99694.84
2022-10-22T12:45:57.813Z,99687.00
2022-10-22T12:48:34.538Z,99692.44
2022-10-22T12:51:04.118Z,99699.78
2022-10-22T12:53:35.034Z,99696.72
2022-10-22T12:56:25.336Z,99692.34
2022-10-22T12:58:57.159Z,99693.38
2022-10-22T13:01:27.985Z,99680.19
2022-10-22T13:04:13.348Z,99681.97
2022-10-22T13:06:45.761Z,99693.75
2022-10-22T13:09:26.942Z,99699.22
2022-10-22T13:12:02.342Z,99701.94
2022-10-22T13:14:32.116Z,99707.22
2022-10-22T13:17:15.175Z,99703.00
2022-10-22T13:19:48.061Z,99703.06
2022-10-22T13:22:35.527Z,99686.97
2022-10-22T13:25:19.360Z,99691.00
2022-10-22T13:27:48.358Z,99692.09
2022-10-22T13:30:20.345Z,99688.56
2022-10-22T13:32:57.611Z,99678.91
2022-10-22T13:35:27.544Z,99679.69
2022-10-22T13:37:54.467Z,99684.50
2022-10-22T13:40:21.668Z,99687.50
2022-10-22T13:42:48.513Z,99694.50
2022-10-22T13:45:16.434Z,99682.25
2022-10-22T13:47:48.565Z,99679.47
2022-10-22T13:50:19.019Z,99673.34
2022-10-22T13:52:54.691Z,99676.63
2022-10-22T13:55:25.409Z,99672.50
2022-10-22T13:57:55.667Z,99670.06
2022-10-22T14:00:26.135Z,99668.63
2022-10-22T14:02:55.531Z,99658.41
2022-10-22T14:05:22.392Z,99654.72
2022-10-22T14:07:49.629Z,99639.75
2022-10-22T14:10:17.956Z,99645.38
2022-10-22T14:12:49.285Z,99632.09
2022-10-22T14:15:19.853Z,99616.28
2022-10-22T14:17:52.146Z,99616.91
2022-10-22T14:20:21.994Z,99609.41
2022-10-22T14:22:50.136Z,99600.56
2022-10-22T14:25:22.138Z,99590.47
2022-10-22T14:27:48.980Z,99590.66
2022-10-22T14:30:24.539Z,99584.00
2022-10-22T14:32:52.005Z,99573.31
2022-10-22T14:35:22.591Z,99582.25
2022-10-22T14:37:49.880Z,99574.31
2022-10-22T14:40:19.324Z,99570.66
2022-10-22T14:42:48.094Z,99567.69
2022-10-22T14:45:21.543Z,99564.16
2022-10-22T14:47:50.136Z,99563.25
2022-10-22T14:50:18.398Z,99560.81
2022-10-22T14:52:45.488Z,99561.69
2022-10-22T14:55:14.219Z,99566.97
2022-10-22T14:57:41.689Z,99576.53
2022-10-22T15:00:14.797Z,99579.63
2022-10-22T15:02:41.974Z,99571.91
2022-10-22T15:05:09.523Z,99571.91
2022-10-22T15:07:36.743Z,99569.06
2022-10-22T15:10:05.014Z,99571.69
2022-10-22T15:12:32.307Z,99571.69
2022-10-22T15:14:59.257Z,99582.28
2022-10-22T15:17:26.125Z,99585.88
2022-10-22T15:19:53.362Z,99597.31
2022-10-22T15:22:20.830Z,99597.44
2022-10-22T15:24:49.167Z,99602.16
2022-10-22T15:27:16.284Z,99604.34
2022-10-22T15:29:43.364Z,99605.72
2022-10-22T15:32:13.039Z,99604.59
2022-10-22T15:34:40.487Z,99603.53
2022-10-22T15:37:10.370Z,99610.34
2022-10-22T15:39:40.813Z,99612.75
2022-10-22T15:58:38.310Z,99593.94
2022-10-22T16:01:10.858Z,99595.59
2022-10-22T16:03:38.195Z,99605.00
2022-10-22T16:06:06.077Z,99602.81
2022-10-22T16:08:33.560Z,99611.13
2022-10-22T16:11:00.856Z,99618.50
2022-10-22T16:13:28.034Z,99624.91
2022-10-22T16:15:54.987Z,99625.13
2022-10-22T16:18:23.787Z,99636.50
2022-10-22T16:20:50.710Z,99632.78
2022-10-22T16:23:19.127Z,99634.25
2022-10-22T16:25:46.786Z,99631.28
2022-10-22T16:28:14.352Z,99638.78
2022-10-22T16:30:41.876Z,99630.50
2022-10-22T16:33:10.139Z,99623.91
2022-10-22T16:35:41.442Z,99619.97
2022-10-22T16:38:10.604Z,99614.31
2022-10-22T16:40:37.667Z,99606.97
2022-10-22T16:43:04.719Z,99607.63
2022-10-22T16:45:31.700Z,99600.41
2022-10-22T16:47:58.624Z,99590.53
2022-10-22T16:50:25.485Z,99590.38
2022-10-22T16:52:52.689Z,99592.88
2022-10-22T16:55:19.510Z,99586.56
2022-10-22T16:57:53.741Z,99604.84
2022-10-22T17:00:21.395Z,99612.66
2022-10-22T17:02:53.180Z,99609.84
2022-10-22T17:05:20.962Z,99599.09
2022-10-22T17:07:48.081Z,99603.38
2022-10-22T17:10:16.274Z,99606.84
2022-10-22T17:12:43.487Z,99595.41
2022-10-22T17:15:10.903Z,99592.75
2022-10-22T17:17:39.137Z,99591.13
2022-10-22T17:20:07.659Z,99586.03
2022-10-22T17:22:34.643Z,99584.53
2022-10-22T17:25:12.850Z,99584.91
2022-10-22T17:27:40.885Z,99581.78
2022-10-22T17:30:09.267Z,99575.84
2022-10-22T17:32:39.046Z,99582.91
2022-10-22T17:35:07.244Z,99571.44
2022-10-22T17:37:35.052Z,99570.44
2022-10-22T17:40:04.263Z,99567.69
2022-10-22T17:42:31.520Z,99571.06
2022-10-22T17:44:58.354Z,99577.84
2022-10-22T17:47:25.173Z,99575.81
2022-10-22T17:49:52.103Z,99575.53
2022-10-22T17:52:18.943Z,99580.44
2022-10-22T17:54:48.856Z,99573.00
2022-10-22T17:57:16.141Z,99570.13
2022-10-22T17:59:43.086Z,99563.66
2022-10-22T18:02:15.495Z,99553.75
2022-10-22T18:04:42.479Z,99556.13
2022-10-22T18:07:13.491Z,99560.44
2022-10-22T18:09:43.025Z,99554.97
2022-10-22T18:12:11.894Z,99549.56
2022-10-22T18:14:38.758Z,99545.00
2022-10-22T18:17:05.676Z,99538.00
2022-10-22T18:19:33.046Z,99537.00
2022-10-22T18:22:00.668Z,99538.72
2022-10-22T18:24:27.524Z,99529.94
2022-10-22T18:26:54.505Z,99533.50
2022-10-22T18:29:21.424Z,99526.56
2022-10-22T18:31:48.993Z,99529.28
2022-10-22T18:34:17.766Z,99532.69
2022-10-22T18:36:47.156Z,99530.84
2022-10-22T18:39:15.627Z,99518.44
2022-10-22T18:41:43.426Z,99524.44
2022-10-22T18:44:13.420Z,99526.13
2022-10-22T18:46:40.644Z,99515.38
2022-10-22T18:49:08.160Z,99519.75
2022-10-22T18:51:36.296Z,99510.84
2022-10-22T18:54:18.187Z,99515.31
2022-10-22T18:56:48.736Z,99516.72
2022-10-22T18:59:22.012Z,99514.22
2022-10-22T19:01:49.492Z,99515.47
2022-10-22T19:04:16.333Z,99514.41
2022-10-22T19:06:46.029Z,99513.81
2022-10-22T19:09:16.576Z,99505.88
2022-10-22T19:11:47.150Z,99510.72
2022-10-22T19:14:15.123Z,99503.53
2022-10-22T21:02:18.954Z,99474.97
2022-10-22T21:04:46.523Z,99476.34
2022-10-22T21:07:13.477Z,99469.81
2022-10-22T21:09:40.264Z,99471.22
2022-10-22T21:12:07.204Z,99463.75
2022-10-22T21:14:34.304Z,99455.44
2022-10-22T21:17:01.170Z,99450.72
2022-10-22T21:19:28.219Z,99446.91
2022-10-22T21:21:55.161Z,99440.53
2022-10-22T21:24:24.814Z,99442.19
2022-10-22T21:26:52.558Z,99438.59
2022-10-22T21:29:20.469Z,99435.03
2022-10-22T21:31:47.518Z,99442.06
2022-10-22T21:34:14.599Z,99436.72
2022-10-22T21:36:41.446Z,99436.78
2022-10-22T21:39:08.808Z,99442.91
2022-10-22T21:41:37.476Z,99435.91
2022-10-22T21:44:04.624Z,99435.97
2022-10-22T21:46:31.401Z,99434.28
2022-10-22T21:49:03.857Z,99431.69
2022-10-22T21:51:33.043Z,99437.13
2022-10-22T21:54:00.330Z,99433.69
2022-10-22T21:56:30.140Z,99436.47
2022-10-22T21:58:56.960Z,99431.50
2022-10-22T22:01:24.233Z,99428.88
2022-10-22T22:03:52.628Z,99426.22
2022-10-22T22:06:22.031Z,99428.81
2022-10-22T22:08:51.606Z,99425.22
2022-10-22T22:11:21.207Z,99415.53
2022-10-22T22:13:51.004Z,99411.88
2022-10-22T22:16:25.494Z,99416.38
2022-10-22T22:18:55.376Z,99409.53
2022-10-22T22:21:22.181Z,99408.50
2022-10-22T22:23:50.236Z,99401.38
2022-10-22T22:26:25.262Z,99407.47
2022-10-22T22:28:56.288Z,99403.88
2022-10-22T22:31:26.161Z,99410.75
2022-10-22T22:34:16.837Z,99402.91
2022-10-22T22:36:46.319Z,99410.75
2022-10-22T22:39:16.033Z,99410.69
2022-10-22T22:41:43.434Z,99400.13
2022-10-22T22:44:10.555Z,99409.91
2022-10-22T22:46:37.385Z,99403.03
2022-10-22T22:49:04.432Z,99400.47
2022-10-22T22:51:31.640Z,99404.09
2022-10-22T22:54:00.261Z,99403.38
2022-10-22T22:56:30.163Z,99401.75
2022-10-22T22:58:57.645Z,99406.50
2022-10-22T23:01:27.076Z,99396.41
2022-10-22T23:03:56.990Z,99401.16
2022-10-22T23:06:25.837Z,99408.00
2022-10-22T23:08:53.127Z,99406.38
2022-10-22T23:11:21.043Z,99395.81
2022-10-22T23:13:51.159Z,99403.75
2022-10-22T23:16:23.637Z,99400.28
2022-10-22T23:18:52.075Z,99404.84
2022-10-22T23:21:27.026Z,99396.22
2022-10-22T23:23:57.267Z,99400.03
2022-10-22T23:26:27.784Z,99395.75
2022-10-22T23:28:54.641Z,99394.22
2022-10-22T23:31:24.112Z,99399.63
2022-10-22T23:33:50.895Z,99401.47
2022-10-22T23:36:17.741Z,99400.03
2022-10-22T23:38:44.655Z,99389.66
2022-10-22T23:41:11.492Z,99390.47
2022-10-22T23:43:38.485Z,99384.66
2022-10-22T23:46:06.894Z,99383.09
2022-10-22T23:48:33.960Z,99386.00
2022-10-22T23:51:09.322Z,99392.31
2022-10-22T23:53:36.139Z,99385.66
2022-10-22T23:56:05.185Z,99386.53
2022-10-22T23:58:32.464Z,99385.75
